Time;durP1;ratioP1;P1;durP2;ratioP2;P2;SDS_P1;SDS_P2;PMS_P1;PMS_P2;Temp;Humidity;BMP_temperature;BMP_pressure;BME280_temperature;BME280_humidity;BME280_pressure;Samples;Min_cycle;Max_cycle;Signal;HPM_P1;HPM_P2
2022/04/14 00:00:03;;;;;;;14.10;6.30;;;22.60;54.30;;;;;;220064;1270;23907;-50
2022/04/14 00:05:32;;;;;;;13.90;6.20;;;22.50;54.50;;;;;;220210;1270;24284;-49
2022/04/14 00:10:36;;;;;;;13.30;6.10;;;22.50;53.70;;;;;;220151;1267;25472;-53
2022/04/14 00:15:41;;;;;;;12.80;6.70;;;22.50;53.50;;;;;;220843;1267;25352;-50
2022/04/14 00:20:46;;;;;;;15.20;6.90;;;22.50;54.10;;;;;;220544;1267;24205;-51
2022/04/14 00:25:53;;;;;;;13.50;6.50;;;22.50;53.90;;;;;;220236;1269;22550;-48
2022/04/14 00:30:59;;;;;;;13.90;6.50;;;22.50;53.70;;;;;;220133;1270;23958;-51
2022/04/14 00:36:04;;;;;;;13.60;6.70;;;22.50;53.90;;;;;;220304;1268;22816;-54
2022/04/14 00:41:07;;;;;;;12.50;6.10;;;22.40;53.40;;;;;;220137;1268;24303;-50
2022/04/14 00:46:11;;;;;;;12.90;6.80;;;22.40;53.00;;;;;;220338;1268;22908;-50
2022/04/14 00:51:15;;;;;;;14.40;5.50;;;22.40;53.70;;;;;;220519;1268;22542;-54
2022/04/14 00:56:19;;;;;;;9.80;5.60;;;22.50;54.10;;;;;;220232;1268;24428;-51
2022/04/14 01:01:23;;;;;;;10.30;6.10;;;22.80;53.10;;;;;;220382;1268;24248;-54
2022/04/14 01:06:27;;;;;;;12.50;6.20;;;23.00;52.30;;;;;;220366;1268;23366;-51
2022/04/14 01:11:31;;;;;;;10.40;5.80;;;23.20;52.10;;;;;;220436;1268;22535;-54
2022/04/14 01:16:35;;;;;;;13.20;6.50;;;23.30;51.70;;;;;;220261;1268;24409;-48
2022/04/14 01:21:45;;;;;;;12.60;6.50;;;23.40;51.80;;;;;;220193;1269;26688;-51
2022/04/14 01:26:59;;;;;;;10.00;5.70;;;23.50;51.30;;;;;;220306;1268;25376;-50
2022/04/14 01:32:05;;;;;;;10.60;6.00;;;23.60;51.30;;;;;;220268;1270;24232;-52
2022/04/14 01:37:10;;;;;;;9.30;5.30;;;23.60;50.60;;;;;;220159;1270;22544;-50
2022/04/14 01:42:14;;;;;;;11.70;6.00;;;23.70;50.60;;;;;;220256;1269;25558;-52
2022/04/14 01:47:18;;;;;;;8.70;5.10;;;23.70;50.30;;;;;;220508;1267;23949;-52
2022/04/14 01:52:22;;;;;;;10.30;5.90;;;23.80;50.40;;;;;;220089;1267;22736;-50
2022/04/14 01:57:26;;;;;;;12.40;5.90;;;23.90;49.90;;;;;;220362;1268;22666;-50
2022/04/14 02:02:30;;;;;;;11.40;5.70;;;23.80;50.20;;;;;;220403;1268;22700;-53
2022/04/14 02:07:34;;;;;;;13.30;6.50;;;23.80;50.00;;;;;;220357;1267;24422;-52
2022/04/14 02:12:39;;;;;;;9.40;5.50;;;23.80;50.10;;;;;;220536;1267;24057;-53
2022/04/14 02:17:43;;;;;;;9.40;5.00;;;23.70;50.40;;;;;;220019;1270;22754;-50
2022/04/14 02:22:46;;;;;;;10.70;6.00;;;23.70;50.00;;;;;;220136;1268;23037;-55
2022/04/14 02:27:50;;;;;;;7.50;4.60;;;23.70;50.10;;;;;;220510;1270;26831;-52
2022/04/14 02:32:54;;;;;;;11.10;5.40;;;23.60;50.00;;;;;;220344;1270;22571;-53
2022/04/14 02:37:58;;;;;;;12.70;5.50;;;23.60;50.20;;;;;;220394;1268;22548;-55
2022/04/14 02:43:02;;;;;;;11.00;5.70;;;23.50;50.20;;;;;;220284;1268;22685;-52
2022/04/14 02:48:07;;;;;;;9.10;5.50;;;23.40;50.40;;;;;;220328;1268;22767;-49
2022/04/14 02:53:11;;;;;;;10.30;5.60;;;23.40;50.30;;;;;;220381;1267;24267;-52
2022/04/14 02:58:15;;;;;;;11.20;5.80;;;23.30;50.80;;;;;;220323;1268;22988;-51
2022/04/14 03:03:21;;;;;;;11.00;5.60;;;23.30;50.50;;;;;;220584;1267;26535;-51
2022/04/14 03:08:24;;;;;;;9.30;5.30;;;23.20;51.20;;;;;;220272;1267;23894;-51
2022/04/14 03:13:28;;;;;;;9.20;5.50;;;23.20;51.00;;;;;;220161;1268;22639;-55
2022/04/14 03:18:33;;;;;;;11.50;6.00;;;23.10;50.70;;;;;;220306;1270;25807;-50
2022/04/14 03:23:37;;;;;;;10.40;5.80;;;23.00;51.00;;;;;;220156;1268;24416;-54
2022/04/14 03:28:43;;;;;;;9.80;6.00;;;23.00;51.00;;;;;;220065;1268;25326;-50
2022/04/14 03:33:47;;;;;;;10.20;6.20;;;23.00;51.30;;;;;;220114;1268;25298;-53
2022/04/14 03:38:51;;;;;;;10.40;5.60;;;22.90;51.00;;;;;;220300;1268;24472;-50
2022/04/14 03:43:55;;;;;;;11.00;5.70;;;22.90;50.90;;;;;;220208;1268;22610;-48
2022/04/14 03:48:58;;;;;;;10.10;5.60;;;22.90;51.00;;;;;;220185;1268;22626;-52
2022/04/14 03:54:02;;;;;;;8.80;5.20;;;22.80;51.20;;;;;;220508;1267;24414;-51
2022/04/14 03:59:08;;;;;;;9.60;5.60;;;22.80;51.20;;;;;;220218;1267;24082;-52
2022/04/14 04:04:12;;;;;;;8.50;5.80;;;22.80;51.60;;;;;;220495;1267;24280;-52
2022/04/14 04:09:15;;;;;;;8.40;5.40;;;22.70;51.30;;;;;;220207;1267;23040;-53
2022/04/14 04:14:20;;;;;;;10.00;5.30;;;22.70;51.50;;;;;;220206;1270;25292;-50
2022/04/14 04:19:23;;;;;;;8.80;5.00;;;22.60;51.40;;;;;;220331;1270;24431;-51
2022/04/14 04:24:27;;;;;;;8.80;5.40;;;22.60;51.40;;;;;;220036;1270;217493;-50
2022/04/14 04:29:31;;;;;;;6.90;4.90;;;22.60;51.60;;;;;;220600;1268;25287;-48
2022/04/14 04:34:35;;;;;;;9.50;5.50;;;22.50;51.50;;;;;;220455;1268;22576;-51
2022/04/14 04:39:38;;;;;;;9.80;5.50;;;22.50;51.60;;;;;;220488;1268;22689;-53
2022/04/14 04:44:42;;;;;;;9.50;5.70;;;22.50;51.70;;;;;;220534;1267;25245;-48
2022/04/14 04:49:47;;;;;;;10.20;5.50;;;22.40;51.60;;;;;;220346;1267;22553;-51
2022/04/14 04:54:51;;;;;;;9.60;5.70;;;22.40;51.60;;;;;;220412;1267;22691;-51
2022/04/14 04:59:54;;;;;;;8.40;5.40;;;22.60;51.70;;;;;;220043;1268;24256;-51
2022/04/14 05:04:58;;;;;;;7.70;5.10;;;22.90;50.80;;;;;;220166;1267;24422;-51
2022/04/14 05:10:02;;;;;;;8.50;5.00;;;23.10;50.20;;;;;;220150;1268;22564;-50
2022/04/14 05:15:06;;;;;;;10.40;5.40;;;23.20;50.00;;;;;;220610;1267;22590;-50
2022/04/14 05:20:10;;;;;;;8.80;5.10;;;23.30;49.70;;;;;;220214;1271;22545;-53
2022/04/14 05:25:17;;;;;;;12.90;5.60;;;23.40;50.10;;;;;;220423;1267;25355;-51
2022/04/14 05:30:23;;;;;;;15.10;5.30;;;23.60;49.30;;;;;;220374;1267;22712;-52
2022/04/14 05:35:26;;;;;;;9.20;4.90;;;23.70;49.80;;;;;;220417;1267;22705;-50
2022/04/14 05:40:30;;;;;;;8.20;4.70;;;23.70;49.70;;;;;;220043;1268;22613;-51
2022/04/14 05:45:44;;;;;;;14.20;5.70;;;23.70;50.50;;;;;;220189;1267;22569;-52
2022/04/14 05:50:49;;;;;;;7.70;4.60;;;23.70;50.00;;;;;;219933;1267;22553;-50
2022/04/14 05:55:59;;;;;;;7.80;4.70;;;23.70;50.10;;;;;;219872;1268;25322;-52
2022/04/14 06:01:02;;;;;;;10.60;5.20;;;23.70;50.70;;;;;;220086;1267;22561;-53
2022/04/14 06:06:09;;;;;;;10.60;5.00;;;23.60;50.80;;;;;;220088;1271;24458;-52
2022/04/14 06:11:13;;;;;;;11.40;4.60;;;23.70;51.30;;;;;;220375;1267;22844;-53
2022/04/14 06:16:23;;;;;;;11.90;4.90;;;23.60;51.00;;;;;;220223;1267;23044;-55
2022/04/14 06:21:36;;;;;;;15.80;5.60;;;23.60;50.90;;;;;;220443;1268;24161;-49
2022/04/14 06:26:40;;;;;;;17.30;5.60;;;23.60;51.40;;;;;;220298;1268;22589;-60
2022/04/14 06:31:50;;;;;;;18.00;5.60;;;23.60;51.20;;;;;;220408;1271;22528;-60
2022/04/14 06:36:54;;;;;;;14.30;5.50;;;23.50;51.00;;;;;;220453;1268;24403;-58
2022/04/14 06:41:58;;;;;;;20.40;8.30;;;23.50;51.10;;;;;;220470;1268;22852;-59
2022/04/14 06:47:02;;;;;;;14.70;7.20;;;23.40;46.40;;;;;;220515;1269;24446;-59
2022/04/14 06:52:08;;;;;;;16.00;6.80;;;23.30;48.10;;;;;;220297;1271;24260;-58
2022/04/14 06:57:12;;;;;;;16.80;7.30;;;23.40;48.40;;;;;;221848;1268;24270;-57
2022/04/14 07:02:15;;;;;;;15.00;6.90;;;23.30;49.00;;;;;;220211;1268;22717;-59
2022/04/14 07:07:19;;;;;;;13.00;6.30;;;23.30;48.80;;;;;;220071;1268;25980;-58
2022/04/14 07:12:24;;;;;;;11.50;6.30;;;23.30;48.90;;;;;;220129;1268;25471;-59
2022/04/14 07:17:28;;;;;;;10.10;5.30;;;23.30;49.30;;;;;;220330;1268;22581;-56
2022/04/14 07:22:49;;;;;;;11.80;6.60;;;23.30;49.00;;;;;;220186;1271;24214;-57
2022/04/14 07:28:01;;;;;;;14.20;6.70;;;23.30;48.90;;;;;;220091;1269;22512;-58
2022/04/14 07:33:05;;;;;;;13.60;6.40;;;23.30;48.80;;;;;;220183;1271;22661;-60
2022/04/14 07:38:10;;;;;;;11.40;6.20;;;23.20;49.00;;;;;;220256;1268;23913;-58
2022/04/14 07:43:20;;;;;;;10.50;5.30;;;23.20;49.10;;;;;;220375;1268;24335;-59
2022/04/14 07:48:29;;;;;;;13.70;6.20;;;23.20;48.70;;;;;;220670;1268;24100;-57
2022/04/14 07:53:33;;;;;;;12.90;6.70;;;23.20;48.90;;;;;;220061;1268;23024;-58
2022/04/14 07:58:39;;;;;;;10.30;5.60;;;23.20;48.50;;;;;;220296;1268;23100;-58
2022/04/14 08:03:47;;;;;;;9.70;5.80;;;23.20;48.60;;;;;;220428;1268;22719;-58
2022/04/14 08:08:51;;;;;;;12.50;6.30;;;23.20;48.90;;;;;;220192;1271;22705;-58
2022/04/14 08:13:55;;;;;;;10.60;5.80;;;23.20;48.50;;;;;;220525;1268;24511;-57
2022/04/14 08:18:59;;;;;;;10.10;6.20;;;23.20;48.60;;;;;;220357;1268;25300;-58
2022/04/14 08:24:07;;;;;;;9.60;5.70;;;23.20;48.50;;;;;;220370;1268;24393;-60
2022/04/14 08:29:11;;;;;;;9.70;6.50;;;23.10;48.50;;;;;;220278;1268;24270;-60
2022/04/14 08:34:20;;;;;;;11.40;6.10;;;23.10;48.50;;;;;;220763;1268;24280;-57
2022/04/14 08:39:29;;;;;;;10.50;5.80;;;23.10;48.40;;;;;;220539;1268;22606;-58
2022/04/14 08:44:37;;;;;;;9.20;5.70;;;23.10;48.40;;;;;;220902;1267;22596;-57
2022/04/14 08:49:44;;;;;;;9.10;5.30;;;23.10;48.40;;;;;;220253;1267;22566;-56
2022/04/14 08:54:49;;;;;;;10.70;5.40;;;23.10;49.00;;;;;;220748;1268;22604;-58
2022/04/14 08:59:56;;;;;;;11.60;5.70;;;23.10;48.30;;;;;;220732;1267;22609;-58
2022/04/14 09:05:00;;;;;;;11.80;6.20;;;23.10;48.30;;;;;;220485;1268;22672;-59
2022/04/14 09:10:21;;;;;;;7.70;5.20;;;23.10;48.20;;;;;;220387;1267;24277;-59
2022/04/14 09:15:29;;;;;;;10.40;5.70;;;23.10;48.10;;;;;;220769;1267;25589;-57
2022/04/14 09:20:39;;;;;;;9.30;5.80;;;23.10;48.10;;;;;;220433;1268;22543;-59
2022/04/14 09:25:45;;;;;;;9.50;5.70;;;23.20;48.10;;;;;;220469;1268;26632;-54
2022/04/14 09:31:00;;;;;;;10.20;5.30;;;23.20;48.30;;;;;;220533;1267;22823;-52
2022/04/14 09:36:13;;;;;;;8.60;5.30;;;23.20;47.60;;;;;;220620;1267;23002;-51
2022/04/14 09:41:33;;;;;;;10.00;5.20;;;23.20;47.60;;;;;;220462;1267;22745;-52
2022/04/14 09:46:44;;;;;;;8.70;5.30;;;23.20;47.60;;;;;;220522;1267;24218;-55
2022/04/14 09:51:50;;;;;;;10.00;5.20;;;23.30;47.20;;;;;;220711;1267;25072;-56
2022/04/14 09:56:56;;;;;;;8.00;4.90;;;23.30;45.20;;;;;;220450;1267;22670;-59
2022/04/14 10:02:17;;;;;;;10.00;4.80;;;23.30;45.80;;;;;;220283;1267;24306;-59
2022/04/14 10:07:20;;;;;;;9.50;5.80;;;23.30;44.50;;;;;;220486;1267;24313;-59
2022/04/14 10:12:24;;;;;;;10.60;5.60;;;23.40;44.00;;;;;;220793;1268;24370;-58
2022/04/14 10:17:35;;;;;;;12.40;5.70;;;23.50;41.50;;;;;;220744;1268;23903;-59
2022/04/14 10:22:39;;;;;;;9.10;4.60;;;23.50;42.20;;;;;;220660;1267;22542;-57
2022/04/14 10:27:43;;;;;;;6.80;5.00;;;23.50;41.80;;;;;;220351;1267;24390;-58
2022/04/14 10:32:47;;;;;;;8.20;5.20;;;23.50;41.70;;;;;;220647;1267;22661;-59
2022/04/14 10:37:56;;;;;;;9.70;4.50;;;23.50;40.90;;;;;;220438;1267;24269;-58
2022/04/14 10:43:08;;;;;;;7.20;4.70;;;23.60;40.50;;;;;;220197;1267;24215;-59
2022/04/14 10:48:32;;;;;;;7.90;4.50;;;23.60;40.20;;;;;;220166;1267;22574;-59
2022/04/14 10:53:50;;;;;;;9.10;4.60;;;23.60;39.80;;;;;;220730;1267;24380;-58
2022/04/14 10:58:57;;;;;;;8.90;5.30;;;23.60;39.90;;;;;;220612;1267;24071;-59
2022/04/14 11:04:56;;;;;;;8.50;4.30;;;23.70;40.00;;;;;;220764;1267;25229;-59
2022/04/14 11:10:13;;;;;;;10.10;4.60;;;23.70;39.80;;;;;;220906;1267;24453;-58
2022/04/14 11:15:39;;;;;;;7.70;3.80;;;23.70;39.10;;;;;;220462;1267;23902;-58
2022/04/14 11:20:49;;;;;;;7.20;4.30;;;23.70;38.30;;;;;;220488;1267;23354;-58
2022/04/14 11:26:12;;;;;;;5.60;3.30;;;23.80;39.20;;;;;;220628;1267;24302;-58
2022/04/14 11:31:44;;;;;;;10.70;4.10;;;23.90;39.30;;;;;;220371;1268;24289;-59
2022/04/14 11:36:54;;;;;;;7.90;3.20;;;23.90;39.30;;;;;;220319;1268;25344;-58
2022/04/14 11:42:11;;;;;;;6.50;3.90;;;23.90;40.20;;;;;;220180;1268;22556;-59
2022/04/14 11:47:29;;;;;;;5.80;3.40;;;23.90;40.20;;;;;;220298;1268;24391;-58
2022/04/14 11:53:02;;;;;;;5.10;3.50;;;24.00;40.40;;;;;;220486;1267;24316;-58
2022/04/14 11:58:15;;;;;;;7.00;3.30;;;24.00;40.40;;;;;;220457;1267;25498;-59
2022/04/14 12:03:39;;;;;;;7.00;3.70;;;24.10;40.30;;;;;;220320;1267;24530;-58
2022/04/14 12:08:56;;;;;;;7.00;3.40;;;24.10;39.30;;;;;;220597;1267;22945;-59
2022/04/14 12:14:02;;;;;;;6.40;3.20;;;24.10;39.60;;;;;;220306;1268;24422;-58
2022/04/14 12:19:09;;;;;;;7.10;3.40;;;24.10;39.70;;;;;;220222;1268;22543;-61
2022/04/14 12:24:15;;;;;;;6.10;3.30;;;24.20;39.60;;;;;;220610;1267;22550;-59
2022/04/14 12:29:19;;;;;;;6.50;3.90;;;24.20;39.20;;;;;;221797;1267;22649;-59
2022/04/14 12:34:23;;;;;;;6.40;3.00;;;24.20;39.40;;;;;;220644;1268;22531;-62
2022/04/14 12:39:36;;;;;;;7.40;3.20;;;24.20;39.30;;;;;;220365;1268;22625;-62
2022/04/14 12:44:45;;;;;;;5.30;3.00;;;24.20;39.30;;;;;;220289;1269;24399;-59
2022/04/14 12:49:50;;;;;;;5.70;3.10;;;24.20;39.10;;;;;;220541;1267;25241;-59
2022/04/14 12:54:58;;;;;;;5.10;3.10;;;24.20;38.80;;;;;;220509;1267;25143;-61
2022/04/14 13:00:10;;;;;;;5.20;3.00;;;24.30;38.80;;;;;;220237;1267;24305;-58
2022/04/14 13:05:16;;;;;;;7.10;3.20;;;24.30;39.20;;;;;;220344;1267;24247;-59
2022/04/14 13:10:26;;;;;;;5.40;2.90;;;24.30;39.10;;;;;;220394;1267;22534;-61
2022/04/14 13:15:30;;;;;;;7.10;3.00;;;24.30;39.30;;;;;;220355;1268;25352;-59
2022/04/14 13:20:40;;;;;;;4.90;3.10;;;24.30;39.30;;;;;;220314;1268;22572;-59
2022/04/14 13:25:48;;;;;;;3.40;2.40;;;24.30;39.40;;;;;;219999;1268;22561;-59
2022/04/14 13:30:51;;;;;;;5.00;3.00;;;24.30;39.30;;;;;;220435;1268;22550;-60
2022/04/14 13:35:57;;;;;;;5.60;3.00;;;24.30;39.60;;;;;;220395;1268;22600;-60
2022/04/14 13:41:03;;;;;;;4.70;2.60;;;24.20;39.40;;;;;;220555;1268;25360;-59
2022/04/14 13:46:07;;;;;;;3.80;2.50;;;24.20;39.00;;;;;;220372;1268;24292;-59
2022/04/14 13:51:11;;;;;;;4.50;2.50;;;24.20;38.60;;;;;;220293;1267;22772;-61
2022/04/14 13:56:15;;;;;;;4.00;2.70;;;24.30;39.10;;;;;;220076;1267;22728;-58
2022/04/14 14:01:21;;;;;;;4.80;2.60;;;24.20;38.60;;;;;;220393;1267;24247;-60
2022/04/14 14:06:31;;;;;;;4.60;2.80;;;24.20;39.00;;;;;;220602;1267;24212;-58
2022/04/14 14:11:36;;;;;;;3.90;2.70;;;24.20;39.20;;;;;;220663;1267;25462;-59
2022/04/14 14:16:40;;;;;;;5.30;2.90;;;24.20;39.30;;;;;;220601;1268;22614;-58
2022/04/14 14:21:44;;;;;;;4.40;2.70;;;24.20;39.50;;;;;;220355;1268;24223;-61
2022/04/14 14:26:54;;;;;;;4.50;2.60;;;24.20;39.90;;;;;;220101;1268;22532;-59
2022/04/14 14:31:57;;;;;;;6.60;3.10;;;24.20;39.70;;;;;;220244;1267;22550;-60
2022/04/14 14:37:01;;;;;;;4.70;2.70;;;24.20;40.10;;;;;;220432;1267;22536;-58
2022/04/14 14:42:07;;;;;;;6.00;2.70;;;24.20;40.50;;;;;;220305;1267;25310;-59
2022/04/14 14:47:12;;;;;;;5.20;2.90;;;24.20;40.90;;;;;;220099;1267;22560;-62
2022/04/14 14:52:16;;;;;;;4.20;2.50;;;24.20;40.50;;;;;;220252;1267;25494;-63
2022/04/14 14:59:12;;;;;;;7.30;2.70;;;24.30;40.40;;;;;;220071;1267;22711;-62
2022/04/14 15:02:48;;;;;;;4.40;2.40;;;24.30;40.60;;;;;;220083;1268;22598;-64
2022/04/14 15:07:57;;;;;;;4.60;2.60;;;24.30;40.80;;;;;;220445;1267;22648;-63
2022/04/14 15:14:14;;;;;;;;;;;;;;;;;;;;;
2022/04/14 15:19:33;;;;;;;5.70;2.70;;;24.20;40.30;;;;;;220551;1267;24400;-63
2022/04/14 15:25:06;;;;;;;5.30;2.50;;;24.20;41.60;;;;;;220231;1267;25257;-64
2022/04/14 15:30:33;;;;;;;4.20;2.80;;;24.20;41.60;;;;;;220262;1267;24205;-63
2022/04/14 15:36:07;;;;;;;5.30;2.40;;;24.20;41.40;;;;;;220306;1267;22613;-64
2022/04/14 15:41:23;;;;;;;14.00;2.80;;;24.20;41.50;;;;;;220570;1267;22542;-62
2022/04/14 15:46:33;;;;;;;4.10;2.60;;;24.20;41.80;;;;;;220453;1267;25229;-64
2022/04/14 15:52:04;;;;;;;9.90;2.60;;;24.20;42.10;;;;;;221868;1267;22596;-59
2022/04/14 15:57:28;;;;;;;6.80;2.90;;;24.10;42.50;;;;;;223779;1267;24227;-62
2022/04/14 16:02:34;;;;;;;6.10;2.40;;;24.10;42.50;;;;;;220219;1267;23945;-60
2022/04/14 16:07:56;;;;;;;6.70;2.60;;;24.10;42.80;;;;;;220615;1267;24419;-64
2022/04/14 16:13:01;;;;;;;7.30;2.70;;;24.10;42.20;;;;;;220377;1268;22698;-61
2022/04/14 16:18:07;;;;;;;5.30;2.70;;;24.10;42.00;;;;;;220608;1268;24214;-63
2022/04/14 16:23:12;;;;;;;5.90;2.30;;;24.00;42.10;;;;;;220268;1270;315232;-62
2022/04/14 16:28:19;;;;;;;8.10;2.90;;;24.00;42.20;;;;;;220505;1270;25564;-62
2022/04/14 16:33:23;;;;;;;5.00;2.80;;;24.00;42.20;;;;;;220357;1267;22567;-60
2022/04/14 16:38:26;;;;;;;6.60;3.50;;;24.00;42.10;;;;;;220332;1267;23724;-61
2022/04/14 16:43:31;;;;;;;7.40;3.80;;;23.90;42.30;;;;;;220393;1267;25446;-62
2022/04/14 16:48:42;;;;;;;9.70;4.00;;;23.90;41.90;;;;;;220361;1267;22528;-59
2022/04/14 16:53:47;;;;;;;24.20;5.40;;;23.90;42.20;;;;;;220578;1267;22716;-59
2022/04/14 16:58:53;;;;;;;13.60;5.60;;;23.90;42.90;;;;;;220568;1267;22547;-59
2022/04/14 17:04:00;;;;;;;14.90;6.00;;;23.90;42.90;;;;;;220433;1267;24279;-59
2022/04/14 17:09:11;;;;;;;13.90;7.00;;;23.90;42.40;;;;;;220415;1267;22684;-60
2022/04/14 17:14:16;;;;;;;17.50;8.30;;;23.90;42.10;;;;;;220401;1267;25252;-62
2022/04/14 17:19:33;;;;;;;22.20;7.80;;;23.80;41.70;;;;;;220019;1267;24368;-60
2022/04/14 17:24:39;;;;;;;19.50;7.50;;;23.80;41.50;;;;;;220425;1268;23910;-63
2022/04/14 17:29:43;;;;;;;15.60;6.40;;;23.70;42.20;;;;;;220266;1267;24361;-64
2022/04/14 17:34:47;;;;;;;13.40;6.20;;;23.90;43.40;;;;;;220304;1267;24457;-63
2022/04/14 17:39:57;;;;;;;12.20;6.10;;;23.90;43.60;;;;;;220218;1267;24288;-64
2022/04/14 17:45:08;;;;;;;16.00;5.60;;;24.00;43.80;;;;;;220386;1267;24300;-65
2022/04/14 17:50:15;;;;;;;12.40;5.80;;;24.00;43.90;;;;;;220171;1267;22648;-64
2022/04/14 17:55:23;;;;;;;;;;;24.00;44.00;;;;;;220212;1267;24421;-64
2022/04/14 18:00:33;;;;;;;12.90;6.10;;;24.00;44.20;;;;;;220223;1267;25458;-64
2022/04/14 18:05:50;;;;;;;11.20;5.00;;;24.00;45.00;;;;;;220180;1267;24288;-65
2022/04/14 18:10:55;;;;;;;10.00;5.20;;;23.90;45.10;;;;;;220343;1267;22542;-69
2022/04/14 18:16:00;;;;;;;8.80;5.20;;;24.00;45.40;;;;;;220263;1267;22615;-67
2022/04/14 18:21:07;;;;;;;10.50;5.10;;;23.90;45.30;;;;;;220342;1267;24320;-66
2022/04/14 18:26:15;;;;;;;17.90;5.30;;;23.90;45.30;;;;;;220100;1267;23024;-65
2022/04/14 18:31:23;;;;;;;10.50;4.90;;;23.90;45.30;;;;;;220465;1267;22824;-65
2022/04/14 18:36:27;;;;;;;9.40;4.90;;;23.90;45.10;;;;;;220294;1267;22887;-53
2022/04/14 18:41:31;;;;;;;10.00;4.90;;;23.90;45.00;;;;;;220345;1267;22561;-53
2022/04/14 18:46:36;;;;;;;10.90;4.80;;;23.90;45.10;;;;;;220455;1267;22552;-50
2022/04/14 18:51:40;;;;;;;11.10;5.50;;;23.90;45.30;;;;;;220293;1267;22550;-54
2022/04/14 18:56:44;;;;;;;15.90;5.70;;;23.90;45.50;;;;;;220387;1267;25831;-57
2022/04/14 19:01:50;;;;;;;13.00;6.10;;;23.90;45.30;;;;;;220317;1267;25353;-55
2022/04/14 19:06:57;;;;;;;15.60;6.00;;;23.90;46.00;;;;;;220707;1267;24215;-56
2022/04/14 19:12:04;;;;;;;14.60;6.10;;;23.90;46.00;;;;;;220579;1267;22671;-58
2022/04/14 19:17:10;;;;;;;12.90;6.40;;;23.90;46.50;;;;;;220522;1267;25475;-56
2022/04/14 19:22:20;;;;;;;18.30;5.80;;;23.90;46.20;;;;;;220684;1267;22661;-58
2022/04/14 19:27:23;;;;;;;10.30;5.70;;;23.90;45.90;;;;;;220191;1267;22593;-58
2022/04/14 19:32:27;;;;;;;20.00;6.00;;;23.90;46.10;;;;;;220647;1267;25528;-56
2022/04/14 19:37:45;;;;;;;10.90;5.10;;;23.90;46.00;;;;;;220372;1267;22592;-55
2022/04/14 19:42:53;;;;;;;13.90;6.40;;;23.90;46.80;;;;;;220247;1267;23605;-55
2022/04/14 19:47:57;;;;;;;12.60;5.90;;;23.80;46.30;;;;;;220312;1267;22738;-58
2022/04/14 19:53:03;;;;;;;13.10;5.50;;;23.80;45.90;;;;;;220364;1267;24377;-54
2022/04/14 19:58:15;;;;;;;10.10;5.70;;;23.80;47.00;;;;;;220456;1267;22568;-52
2022/04/14 20:03:19;;;;;;;12.40;5.60;;;23.90;46.30;;;;;;220566;1267;22557;-53
2022/04/14 20:08:27;;;;;;;10.30;5.10;;;23.80;46.20;;;;;;220409;1267;22627;-51
2022/04/14 20:13:39;;;;;;;11.10;5.80;;;23.80;46.30;;;;;;220062;1267;24965;-50
2022/04/14 20:18:45;;;;;;;14.70;6.40;;;23.70;46.50;;;;;;220283;1267;22556;-53
2022/04/14 20:23:49;;;;;;;9.90;5.20;;;23.60;46.70;;;;;;220285;1267;22594;-52
2022/04/14 20:28:59;;;;;;;8.10;5.40;;;23.70;46.00;;;;;;220280;1267;22623;-52
2022/04/14 20:34:06;;;;;;;;;;;23.70;46.00;;;;;;220367;1267;24198;-58
2022/04/14 20:39:10;;;;;;;8.90;4.70;;;23.70;46.30;;;;;;220313;1267;22712;-54
2022/04/14 20:44:23;;;;;;;13.50;4.90;;;23.70;46.50;;;;;;220197;1267;22629;-53
2022/04/14 20:49:36;;;;;;;10.80;4.80;;;23.60;46.60;;;;;;220232;1268;24453;-54
2022/04/14 20:54:42;;;;;;;8.10;5.00;;;23.70;46.90;;;;;;220303;1267;25659;-50
2022/04/14 20:59:51;;;;;;;21.10;7.60;;;23.60;46.70;;;;;;220305;1267;22582;-54
2022/04/14 21:05:01;;;;;;;17.30;6.90;;;23.60;46.90;;;;;;220182;1267;25972;-58
2022/04/14 21:10:09;;;;;;;15.10;6.50;;;23.60;47.70;;;;;;220246;1267;24418;-57
2022/04/14 21:15:15;;;;;;;15.80;5.80;;;23.70;47.20;;;;;;220439;1267;24342;-56
2022/04/14 21:20:25;;;;;;;13.60;5.70;;;23.70;47.00;;;;;;220192;1267;22670;-58
2022/04/14 21:25:36;;;;;;;15.80;5.40;;;23.60;47.10;;;;;;220370;1267;24258;-56
2022/04/14 21:30:53;;;;;;;13.90;5.40;;;23.60;47.20;;;;;;220408;1267;24275;-58
2022/04/14 21:36:08;;;;;;;11.40;6.10;;;23.60;47.10;;;;;;220207;1267;22841;-56
2022/04/14 21:41:12;;;;;;;10.20;5.00;;;23.60;47.10;;;;;;220707;1267;25308;-57
2022/04/14 21:46:20;;;;;;;12.40;5.40;;;23.60;47.60;;;;;;220555;1267;24453;-55
2022/04/14 21:51:24;;;;;;;13.10;5.90;;;23.60;47.50;;;;;;220882;1267;25542;-57
2022/04/14 21:56:29;;;;;;;13.30;5.60;;;23.60;47.80;;;;;;220439;1267;25063;-55
2022/04/14 22:01:37;;;;;;;28.40;5.60;;;23.60;47.90;;;;;;220516;1267;24360;-57
2022/04/14 22:06:41;;;;;;;12.90;5.80;;;23.60;48.50;;;;;;220476;1267;22625;-59
2022/04/14 22:11:46;;;;;;;9.90;4.90;;;23.60;48.00;;;;;;220784;1267;24285;-55
2022/04/14 22:16:50;;;;;;;11.40;5.40;;;23.50;48.10;;;;;;220430;1267;24398;-58
2022/04/14 22:21:54;;;;;;;12.50;5.40;;;23.50;48.10;;;;;;220401;1267;24361;-60
2022/04/14 22:26:58;;;;;;;9.00;4.10;;;23.50;48.10;;;;;;220618;1267;22674;-59
2022/04/14 22:32:02;;;;;;;7.40;4.30;;;23.40;48.20;;;;;;220638;1267;23555;-61
2022/04/14 22:37:09;;;;;;;10.90;4.60;;;23.50;48.30;;;;;;220303;1267;25292;-58
2022/04/14 22:42:14;;;;;;;16.40;5.00;;;23.40;50.20;;;;;;220198;1267;22750;-60
2022/04/14 22:47:19;;;;;;;10.00;5.10;;;23.50;50.30;;;;;;220291;1267;24410;-58
2022/04/14 22:52:23;;;;;;;12.40;4.60;;;23.50;50.40;;;;;;220387;1267;23036;-57
2022/04/14 22:57:26;;;;;;;12.60;4.70;;;23.50;49.70;;;;;;220604;1267;22569;-58
2022/04/14 23:02:30;;;;;;;9.00;5.50;;;23.50;50.10;;;;;;220356;1267;22583;-58
2022/04/14 23:07:35;;;;;;;8.40;4.90;;;23.40;49.50;;;;;;220383;1267;23002;-59
2022/04/14 23:12:40;;;;;;;8.30;4.40;;;23.40;50.10;;;;;;220158;1267;25188;-58
2022/04/14 23:17:46;;;;;;;7.20;4.20;;;23.40;50.10;;;;;;220064;1270;22564;-57
2022/04/14 23:22:53;;;;;;;9.90;4.90;;;23.40;50.10;;;;;;220145;1270;25621;-59
2022/04/14 23:27:57;;;;;;;7.40;4.50;;;23.40;49.60;;;;;;220302;1268;24401;-58
2022/04/14 23:33:02;;;;;;;9.10;4.90;;;23.30;49.90;;;;;;220592;1271;24383;-59
2022/04/14 23:38:09;;;;;;;9.40;5.00;;;23.30;50.10;;;;;;220307;1270;22552;-58
2022/04/14 23:43:13;;;;;;;8.70;4.60;;;23.30;49.80;;;;;;220464;1270;22582;-58
2022/04/14 23:48:17;;;;;;;7.90;4.30;;;23.30;50.30;;;;;;220842;1268;22732;-62
2022/04/14 23:53:21;;;;;;;6.60;3.80;;;23.30;49.90;;;;;;220849;1268;25710;-59
2022/04/14 23:58:26;;;;;;;9.50;5.00;;;23.30;49.90;;;;;;220577;1268;24189;-59
